createdAt,value
2022-10-01T00:01:02.668Z,21.60
2022-10-01T00:03:50.330Z,21.63
2022-10-01T00:06:30.465Z,25.48
2022-10-01T00:09:17.417Z,21.63
2022-10-01T00:11:59.856Z,25.20
2022-10-01T00:14:46.321Z,116.05
2022-10-01T00:17:36.448Z,44.05
2022-10-01T00:20:16.718Z,30.45
2022-10-01T00:23:03.463Z,29.70
2022-10-01T00:25:52.243Z,30.40
2022-10-01T00:28:39.389Z,30.98
2022-10-01T00:31:27.433Z,28.05
2022-10-01T00:34:14.292Z,30.77
2022-10-01T00:37:01.308Z,28.00
2022-10-01T00:39:41.722Z,27.15
2022-10-01T00:42:37.318Z,26.98
2022-10-01T00:45:17.858Z,25.75
2022-10-01T00:48:12.377Z,26.52
2022-10-01T00:50:59.295Z,23.40
2022-10-01T00:53:46.285Z,22.98
2022-10-01T00:56:26.965Z,25.40
2022-10-01T00:59:13.286Z,17.52
2022-10-01T01:02:00.321Z,17.23
2022-10-01T01:04:40.474Z,18.65
2022-10-01T01:07:28.326Z,27.35
2022-10-01T01:10:10.533Z,23.75
2022-10-01T01:13:36.256Z,24.02
2022-10-01T01:16:22.443Z,20.05
2022-10-01T01:19:11.239Z,22.27
2022-10-01T01:22:07.263Z,20.63
2022-10-01T01:25:29.341Z,21.80
2022-10-01T01:28:31.305Z,18.77
2022-10-01T01:34:10.295Z,15.43
2022-10-01T01:37:11.253Z,31.83
2022-10-01T01:40:02.326Z,16.30
2022-10-01T01:42:45.460Z,18.55
2022-10-01T01:45:37.340Z,19.17
2022-10-01T01:48:24.209Z,12.32
2022-10-01T01:51:39.247Z,14.50
2022-10-01T01:54:26.203Z,18.48
2022-10-01T01:57:08.345Z,12.65
2022-10-01T01:59:56.195Z,10.23
2022-10-01T02:02:50.309Z,11.88
2022-10-01T02:05:36.302Z,10.30
2022-10-01T02:08:50.223Z,13.95
2022-10-01T02:11:45.196Z,11.63
2022-10-01T02:14:51.227Z,13.68
2022-10-01T02:17:34.316Z,12.57
2022-10-01T02:20:33.177Z,16.40
2022-10-01T02:23:17.355Z,16.38
2022-10-01T02:26:09.169Z,19.35
2022-10-01T02:29:07.242Z,20.77
2022-10-01T02:31:56.324Z,24.50
2022-10-01T02:34:38.321Z,26.67
2022-10-01T02:37:30.195Z,30.13
2022-10-01T02:40:13.864Z,24.48
2022-10-01T02:43:06.231Z,26.02
2022-10-01T02:45:48.328Z,30.27
2022-10-01T02:48:35.255Z,35.20
2022-10-01T02:51:27.533Z,26.40
2022-10-01T02:54:24.235Z,27.40
2022-10-01T02:57:30.177Z,27.60
2022-10-01T03:00:22.149Z,32.08
2022-10-01T03:03:09.144Z,33.65
2022-10-01T03:05:56.138Z,39.75
2022-10-01T03:26:00.006Z,29.08
2022-10-01T03:28:40.390Z,22.63
2022-10-01T03:31:27.064Z,24.95
2022-10-01T03:34:14.085Z,19.70
2022-10-01T03:37:01.041Z,21.33
2022-10-01T03:39:41.413Z,19.85
2022-10-01T03:42:27.996Z,21.20
2022-10-01T03:45:08.838Z,23.52
2022-10-01T03:47:55.977Z,19.33
2022-10-01T03:50:43.020Z,21.45
2022-10-01T03:53:30.007Z,16.17
2022-10-01T03:56:17.039Z,18.73
2022-10-01T04:09:10.018Z,20.08
2022-10-01T04:11:56.957Z,18.80
2022-10-01T04:14:37.355Z,17.33
2022-10-01T04:17:24.016Z,17.45
2022-10-01T04:20:04.677Z,18.88
2022-10-01T04:22:54.949Z,17.73
2022-10-01T04:25:42.110Z,17.45
2022-10-01T04:28:22.987Z,16.77
2022-10-01T04:31:22.993Z,16.10
2022-10-01T04:34:10.913Z,16.77
2022-10-01T04:36:57.989Z,14.15
2022-10-01T04:39:45.241Z,16.13
2022-10-01T04:42:32.033Z,18.38
2022-10-01T04:45:13.672Z,14.52
2022-10-01T04:48:02.935Z,15.73
2022-10-01T04:50:43.244Z,13.18
2022-10-01T04:53:29.919Z,15.73
2022-10-01T04:56:16.918Z,13.35
2022-10-01T04:58:57.305Z,12.23
2022-10-01T05:01:44.077Z,16.88
2022-10-01T05:04:24.277Z,14.27
2022-10-01T05:07:10.899Z,22.45
2022-10-01T05:09:57.963Z,17.75
2022-10-01T05:12:37.990Z,16.73
2022-10-01T05:15:25.884Z,20.10
2022-10-01T05:18:06.050Z,20.42
2022-10-01T05:20:52.883Z,19.63
2022-10-01T05:23:33.346Z,20.27
2022-10-01T05:26:19.866Z,14.95
2022-10-01T05:29:06.946Z,23.25
2022-10-01T05:31:47.521Z,15.55
2022-10-01T05:34:33.885Z,15.40
2022-10-01T05:37:15.204Z,28.73
2022-10-01T05:40:01.868Z,15.10
2022-10-01T05:42:46.956Z,18.75
2022-10-01T05:45:34.004Z,20.17
2022-10-01T05:48:14.306Z,22.58
2022-10-01T05:51:01.060Z,19.48
2022-10-01T05:53:41.358Z,27.40
2022-10-01T05:56:27.893Z,18.85
2022-10-01T05:59:08.327Z,18.05
2022-10-01T06:01:55.012Z,18.75
2022-10-01T06:04:40.295Z,18.40
2022-10-01T06:07:27.854Z,15.38
2022-10-01T06:10:15.883Z,14.70
2022-10-01T06:13:03.817Z,16.08
2022-10-01T06:15:52.838Z,19.00
2022-10-01T06:18:33.035Z,12.95
2022-10-01T06:21:19.815Z,16.58
2022-10-01T06:24:07.928Z,11.77
2022-10-01T06:26:55.807Z,17.08
2022-10-01T06:29:42.821Z,12.30
2022-10-01T06:32:34.147Z,15.40
2022-10-01T06:35:14.928Z,18.77
2022-10-01T06:38:01.833Z,16.55
2022-10-01T06:40:41.925Z,16.00
2022-10-01T06:43:29.886Z,18.70
2022-10-01T06:46:13.021Z,16.10
2022-10-01T06:48:59.794Z,15.07
2022-10-01T06:52:07.263Z,18.38
2022-10-01T06:54:56.542Z,15.52
2022-10-01T06:57:36.883Z,14.38
2022-10-01T07:00:23.825Z,17.25
2022-10-01T07:03:03.916Z,11.40
2022-10-01T07:05:51.775Z,10.93
2022-10-01T07:08:33.318Z,10.38
2022-10-01T07:11:20.777Z,8.55
2022-10-01T07:14:02.261Z,11.02
2022-10-01T07:16:48.829Z,6.15
2022-10-01T07:19:28.897Z,4.80
2022-10-01T07:22:15.976Z,4.60
2022-10-01T07:25:02.815Z,6.50
2022-10-01T07:27:43.329Z,4.28
2022-10-01T07:30:30.772Z,4.40
2022-10-01T07:33:11.170Z,5.13
2022-10-01T07:35:57.828Z,4.93
2022-10-01T07:38:46.110Z,5.32
2022-10-01T07:41:25.737Z,3.33
2022-10-01T07:44:06.215Z,4.50
2022-10-01T07:46:53.758Z,4.82
2022-10-01T07:49:34.184Z,5.15
2022-10-01T07:52:20.742Z,7.22
2022-10-01T07:55:01.215Z,7.28
2022-10-01T07:57:47.770Z,5.85
2022-10-01T08:00:30.317Z,7.45
2022-10-01T08:03:18.812Z,4.93
2022-10-01T08:06:05.959Z,6.68
2022-10-01T08:08:46.465Z,6.63
2022-10-01T08:11:33.032Z,7.18
2022-10-01T08:14:13.948Z,7.68
2022-10-01T08:17:04.731Z,5.80
2022-10-01T08:19:45.323Z,5.80
2022-10-01T08:22:32.686Z,6.65
2022-10-01T08:25:26.672Z,5.28
2022-10-01T08:28:14.742Z,5.85
2022-10-01T08:31:02.705Z,5.82
2022-10-01T08:33:43.284Z,7.97
2022-10-01T08:36:29.696Z,7.50
2022-10-01T08:39:19.660Z,6.85
2022-10-01T08:42:19.698Z,7.15
2022-10-01T08:45:04.502Z,8.23
2022-10-01T08:47:59.691Z,5.68
2022-10-01T08:51:00.182Z,6.90
2022-10-01T08:53:46.695Z,7.35
2022-10-01T08:56:47.718Z,6.38
2022-10-01T08:59:48.777Z,6.13
2022-10-01T09:02:31.933Z,10.65
2022-10-01T09:05:35.695Z,15.15
2022-10-01T09:08:52.681Z,3.45
2022-10-01T09:11:46.770Z,6.05
2022-10-01T09:14:36.676Z,6.13
2022-10-01T09:18:02.650Z,6.45
2022-10-01T09:20:58.649Z,6.65
2022-10-01T09:23:58.660Z,6.78
2022-10-01T09:26:57.649Z,8.90
2022-10-01T09:29:48.115Z,8.10
2022-10-01T09:32:43.678Z,8.65
2022-10-01T09:35:39.659Z,10.00
2022-10-01T09:38:47.726Z,10.57
2022-10-01T09:41:34.861Z,8.35
2022-10-01T09:44:23.733Z,9.30
2022-10-01T09:47:23.652Z,9.85
2022-10-01T09:50:17.629Z,10.02
2022-10-01T09:53:06.643Z,11.88
2022-10-01T09:55:50.721Z,12.45
2022-10-01T09:58:41.604Z,7.72
2022-10-01T10:01:40.629Z,7.70
2022-10-01T10:04:23.687Z,10.82
2022-10-01T10:09:48.713Z,5.65
2022-10-01T10:12:37.624Z,7.55
2022-10-01T10:15:26.243Z,5.57
2022-10-01T10:18:24.638Z,5.45
2022-10-01T10:21:08.054Z,6.57
2022-10-01T10:24:05.585Z,6.57
2022-10-01T10:27:09.639Z,4.97
2022-10-01T10:29:49.989Z,5.40
2022-10-01T10:32:40.618Z,4.57
2022-10-01T10:35:26.215Z,5.82
2022-10-01T10:38:12.578Z,4.18
2022-10-01T10:40:59.614Z,7.47
2022-10-01T10:43:51.589Z,6.97
2022-10-01T10:46:46.432Z,4.47
2022-10-01T10:49:46.554Z,4.68
2022-10-01T10:52:33.808Z,3.58
2022-10-01T10:55:32.559Z,6.50
2022-10-01T10:58:21.567Z,7.47
2022-10-01T11:01:03.709Z,5.43
2022-10-01T11:03:59.548Z,4.30
2022-10-01T11:06:39.910Z,7.18
2022-10-01T11:09:26.545Z,6.22
2022-10-01T11:12:12.664Z,11.80
2022-10-01T11:15:18.541Z,7.28
2022-10-01T11:18:17.545Z,3.90
2022-10-01T11:21:45.199Z,6.22
2022-10-01T11:24:40.554Z,5.45
2022-10-01T11:27:48.691Z,4.25
2022-10-01T11:30:36.541Z,5.38
2022-10-01T11:33:55.569Z,5.03
2022-10-01T11:37:01.316Z,6.35
2022-10-01T11:39:52.517Z,5.85
2022-10-01T11:42:40.648Z,7.03
2022-10-01T11:45:38.528Z,7.05
2022-10-01T11:48:44.572Z,5.13
2022-10-01T11:51:34.143Z,5.95
2022-10-01T11:54:27.526Z,6.60
2022-10-01T12:03:16.812Z,7.03
2022-10-01T12:06:05.513Z,5.50
2022-10-01T12:08:53.265Z,7.80
2022-10-01T12:11:43.514Z,6.88
2022-10-01T12:14:37.497Z,7.88
2022-10-01T12:17:28.544Z,7.00
2022-10-01T12:20:19.521Z,7.28
2022-10-01T12:23:09.468Z,6.68
2022-10-01T12:26:18.475Z,5.63
2022-10-01T12:29:37.563Z,7.15
2022-10-01T12:32:18.501Z,7.25
2022-10-01T12:35:04.233Z,4.07
2022-10-01T12:37:53.457Z,6.80
2022-10-01T12:40:48.156Z,7.28
2022-10-01T12:43:42.453Z,6.10
2022-10-01T12:46:40.557Z,5.07
2022-10-01T12:49:49.478Z,5.18
2022-10-01T12:52:56.462Z,7.78
2022-10-01T12:55:56.631Z,6.50
2022-10-01T12:59:00.458Z,6.35
2022-10-01T13:02:06.474Z,4.70
2022-10-01T13:05:15.449Z,5.65
2022-10-01T13:08:09.466Z,5.45
2022-10-01T13:11:14.570Z,18.30
2022-10-01T13:13:56.379Z,6.28
2022-10-01T13:16:56.470Z,9.05
2022-10-01T13:20:02.502Z,5.72
2022-10-01T13:22:57.556Z,6.22
2022-10-01T13:25:55.410Z,5.10
2022-10-01T13:28:54.435Z,7.38
2022-10-01T13:31:43.519Z,5.43
2022-10-01T13:34:49.442Z,6.53
2022-10-01T13:37:36.425Z,9.70
2022-10-01T13:40:47.436Z,6.72
2022-10-01T13:43:30.216Z,6.38
2022-10-01T13:46:24.530Z,5.60
2022-10-01T13:49:32.366Z,5.70
2022-10-01T13:52:34.439Z,5.40
2022-10-01T13:55:30.423Z,6.55
2022-10-01T13:58:20.458Z,9.75
2022-10-01T14:01:19.997Z,7.50
2022-10-01T14:04:41.590Z,7.28
2022-10-01T14:07:28.066Z,7.63
2022-10-01T14:10:15.828Z,5.82
2022-10-01T14:13:16.404Z,7.43
2022-10-01T14:16:07.464Z,7.88
2022-10-01T14:18:50.149Z,9.38
2022-10-01T14:21:52.393Z,7.78
2022-10-01T14:25:28.398Z,7.25
2022-10-01T14:28:23.680Z,10.63
2022-10-01T14:31:10.433Z,10.48
2022-10-01T14:34:03.397Z,9.63
2022-10-01T14:36:50.452Z,9.68
2022-10-01T14:39:37.557Z,9.98
2022-10-01T14:42:23.532Z,8.73
2022-10-01T14:45:24.573Z,9.77
2022-10-01T14:48:18.425Z,8.68
2022-10-01T14:51:11.372Z,8.32
2022-10-01T14:53:51.541Z,8.45
2022-10-01T14:56:39.315Z,10.55
2022-10-01T14:59:44.445Z,9.85
2022-10-01T15:02:33.328Z,9.73
2022-10-01T15:05:41.561Z,8.95
2022-10-01T15:08:43.285Z,9.60
2022-10-01T15:27:56.579Z,8.95
2022-10-01T15:30:43.582Z,11.07
2022-10-01T15:33:50.852Z,16.17
2022-10-01T15:36:31.033Z,10.68
2022-10-01T15:39:37.440Z,7.85
2022-10-01T15:43:02.289Z,9.90
2022-10-01T15:45:42.612Z,9.57
2022-10-01T15:48:39.449Z,15.75
2022-10-01T15:51:41.303Z,14.23
2022-10-01T15:54:22.483Z,13.05
2022-10-01T15:57:09.284Z,9.82
2022-10-01T15:59:55.651Z,11.50
2022-10-01T16:02:47.507Z,11.50
2022-10-01T16:06:03.284Z,12.63
2022-10-01T16:08:58.010Z,10.48
2022-10-01T16:11:45.246Z,13.02
2022-10-01T16:14:34.815Z,14.00
2022-10-01T16:17:33.229Z,10.85
2022-10-01T16:20:51.280Z,8.40
2022-10-01T16:23:54.232Z,8.85
2022-10-01T16:26:50.213Z,10.40
2022-10-01T16:29:37.255Z,8.10
2022-10-01T16:32:21.390Z,10.95
2022-10-01T16:35:22.282Z,8.85
2022-10-01T16:38:15.231Z,11.35
2022-10-01T16:40:55.674Z,8.57
2022-10-01T16:43:42.229Z,6.88
2022-10-01T16:46:22.787Z,9.57
2022-10-01T16:49:09.188Z,9.88
2022-10-01T16:51:59.218Z,11.45
2022-10-01T16:54:46.225Z,9.80
2022-10-01T16:57:33.212Z,9.20
2022-10-01T17:00:21.187Z,6.65
2022-10-01T17:03:08.219Z,8.88
2022-10-01T17:05:50.303Z,7.65
2022-10-01T17:08:37.216Z,11.20
2022-10-01T17:11:18.269Z,7.90
2022-10-01T17:14:05.162Z,9.30
2022-10-01T17:16:52.179Z,10.15
2022-10-01T17:19:32.733Z,9.10
2022-10-01T17:22:19.183Z,10.57
2022-10-01T17:24:59.645Z,8.35
2022-10-01T17:27:47.312Z,11.40
2022-10-01T17:30:29.361Z,8.70
2022-10-01T17:33:16.163Z,10.38
2022-10-01T17:35:56.558Z,13.23
2022-10-01T17:38:43.157Z,14.30
2022-10-01T17:41:23.563Z,12.73
2022-10-01T17:44:11.167Z,11.27
2022-10-01T17:46:51.635Z,13.65
2022-10-01T17:49:38.153Z,10.70
2022-10-01T17:52:19.103Z,10.13
2022-10-01T17:55:06.179Z,12.98
2022-10-01T17:58:00.264Z,14.35
2022-10-01T18:00:48.176Z,18.70
2022-10-01T18:03:29.375Z,10.48
2022-10-01T18:06:23.142Z,13.52
2022-10-01T18:09:10.138Z,10.80
2022-10-01T18:11:57.092Z,14.38
2022-10-01T18:14:37.268Z,14.07
2022-10-01T18:17:24.153Z,13.23
2022-10-01T18:20:04.249Z,15.85
2022-10-01T18:22:53.102Z,16.65
2022-10-01T18:25:40.098Z,12.65
2022-10-01T18:28:34.131Z,18.30
2022-10-01T18:31:29.032Z,14.77
2022-10-01T18:34:24.110Z,17.45
2022-10-01T18:37:14.092Z,17.73
2022-10-01T18:40:03.270Z,12.52
2022-10-01T18:42:56.077Z,11.40
2022-10-01T18:46:12.166Z,10.65
2022-10-01T18:49:15.273Z,12.50
2022-10-01T18:52:33.141Z,12.73
2022-10-01T18:55:39.043Z,11.65
2022-10-01T18:58:54.089Z,20.23
2022-10-01T19:01:55.174Z,18.58
2022-10-01T19:04:51.103Z,11.13
2022-10-01T19:07:51.625Z,15.65
2022-10-01T19:10:44.046Z,15.55
2022-10-01T19:13:48.068Z,14.73
2022-10-01T19:16:45.138Z,17.23
2022-10-01T19:19:41.181Z,12.63
2022-10-01T19:22:58.062Z,16.50
2022-10-01T19:26:05.044Z,13.40
2022-10-01T19:28:51.159Z,13.93
2022-10-01T19:32:08.068Z,17.58
2022-10-01T19:35:22.039Z,20.35
2022-10-01T19:38:09.175Z,14.75
2022-10-01T19:41:06.014Z,12.13
2022-10-01T19:44:00.046Z,18.50
2022-10-01T19:46:45.969Z,13.38
2022-10-01T19:49:48.992Z,12.32
2022-10-01T19:52:45.032Z,13.23
2022-10-01T19:55:29.882Z,12.75
2022-10-01T19:58:28.062Z,12.13
2022-10-01T20:01:10.198Z,11.52
2022-10-01T20:04:08.076Z,12.73
2022-10-01T20:07:01.999Z,17.52
2022-10-01T20:09:58.667Z,16.30
2022-10-01T20:13:13.144Z,17.00
2022-10-01T20:16:16.037Z,14.40
2022-10-01T20:19:05.293Z,15.23
2022-10-01T20:22:28.961Z,20.13
2022-10-01T20:25:41.995Z,15.68
2022-10-01T20:28:40.172Z,16.17
2022-10-01T20:31:46.073Z,14.70
2022-10-01T20:35:07.982Z,19.30
2022-10-01T20:38:32.968Z,18.35
2022-10-01T20:41:23.985Z,17.60
2022-10-01T20:44:09.887Z,14.35
2022-10-01T20:47:33.994Z,19.42
2022-10-01T20:50:36.240Z,22.70
2022-10-01T20:53:53.980Z,21.00
2022-10-01T20:57:09.030Z,19.05
2022-10-01T21:00:04.971Z,16.10
2022-10-01T21:03:25.191Z,14.50
2022-10-01T21:06:14.318Z,13.60
2022-10-01T21:09:35.013Z,27.55
2022-10-01T21:12:40.964Z,16.30
2022-10-01T21:15:21.050Z,11.52
2022-10-01T21:18:17.939Z,10.07
2022-10-01T21:21:05.006Z,6.88
2022-10-01T21:24:25.043Z,9.38
2022-10-01T21:27:24.889Z,9.63
2022-10-01T21:30:18.902Z,9.63
2022-10-01T21:33:31.189Z,9.27
2022-10-01T21:36:39.877Z,12.98
2022-10-01T21:39:36.178Z,9.50
2022-10-01T21:42:22.458Z,11.95
2022-10-01T21:45:43.943Z,13.85
2022-10-01T21:48:33.261Z,21.83
2022-10-01T21:51:31.966Z,16.73
2022-10-01T21:54:22.302Z,14.23
2022-10-01T21:57:34.917Z,13.45
2022-10-01T22:00:33.022Z,19.73
2022-10-01T22:03:19.784Z,11.60
2022-10-01T22:06:21.260Z,13.73
2022-10-01T22:09:10.028Z,16.08
2022-10-01T22:12:00.950Z,15.95
2022-10-01T22:14:41.962Z,17.13
2022-10-01T22:17:33.919Z,14.90
2022-10-01T22:20:21.837Z,14.13
2022-10-01T22:23:15.884Z,11.20
2022-10-01T22:26:27.995Z,12.20
2022-10-01T22:29:22.934Z,13.98
2022-10-01T22:32:10.016Z,10.32
2022-10-01T22:35:07.980Z,11.32
2022-10-01T22:38:04.842Z,11.93
2022-10-01T22:40:51.789Z,12.70
2022-10-01T22:43:38.846Z,13.18
2022-10-01T22:46:25.281Z,10.80
2022-10-01T22:49:17.822Z,10.07
2022-10-01T22:52:31.075Z,11.15
2022-10-01T22:55:25.119Z,9.35
2022-10-01T22:58:37.822Z,11.93
2022-10-01T23:01:36.832Z,9.25
2022-10-01T23:04:48.804Z,10.60
2022-10-01T23:07:41.807Z,8.27
2022-10-01T23:10:28.916Z,10.27
2022-10-01T23:13:40.809Z,8.77
2022-10-01T23:17:00.818Z,8.07
2022-10-01T23:20:15.041Z,7.65
2022-10-01T23:22:57.998Z,8.57
2022-10-01T23:26:37.125Z,6.85
2022-10-01T23:29:52.766Z,4.80
2022-10-01T23:33:06.799Z,6.38
2022-10-01T23:35:53.797Z,6.50
2022-10-01T23:38:46.396Z,5.45
2022-10-01T23:41:42.768Z,5.20
2022-10-01T23:44:41.737Z,6.63
2022-10-01T23:47:35.764Z,12.48
2022-10-01T23:50:29.474Z,12.60
2022-10-01T23:53:26.809Z,8.52
2022-10-01T23:56:37.000Z,8.30
2022-10-01T23:59:46.747Z,13.18
